X  Cerrar Datos meteorológicos de aviación METAR     LEBL Josep Tarradellas Barcelona-El Prat Airport
Temperatura
48°F Temperatura
36°F Punto de rocío
62% Humedad



Viento
16 MPH
26 KM/H
7 M/S
14 NUDO



30°
NNE
Condiciones actuales

Parcialmente nublado Parcialmente nublado
Presión 1022.92 (hPa) - 30.21 (inHg)
Visibilidad 6.2 (milla) - 10 (km)
Aeropuerto
Código de aeropuerto LEBL

localidad: Josep Tarradellas Barcelona-El Prat Airport
Distancia: 20 (mi)

Metar:
LEBL 070630Z 03014KT 9999 FEW020 BKN055 09/02 Q1023 NOSIG

Hora: 07-02-2023 07:30 CET